Time;durP1;ratioP1;P1;durP2;ratioP2;P2;SDS_P1;SDS_P2;PMS_P1;PMS_P2;Temp;Humidity;BMP_temperature;BMP_pressure;BME280_temperature;BME280_humidity;BME280_pressure;Samples;Min_cycle;Max_cycle;Signal;HPM_P1;HPM_P2
2023/03/04 00:00:13;;;;;;;13.73;2.28;;;;;;;4.75;100.00;102482.03;5125420;27;20509;-62
2023/03/04 00:02:41;;;;;;;11.90;2.15;;;;;;;4.73;100.00;102478.59;5130627;27;20167;-62
2023/03/04 00:05:09;;;;;;;10.45;1.83;;;;;;;4.75;100.00;102482.03;5126367;27;20043;-62
2023/03/04 00:07:37;;;;;;;20.75;3.65;;;;;;;4.83;100.00;102472.38;5132932;27;20423;-62
2023/03/04 00:10:07;;;;;;;16.88;2.35;;;;;;;4.76;100.00;102480.28;5134425;27;20047;-62
2023/03/04 00:12:35;;;;;;;13.43;2.90;;;;;;;4.72;100.00;102480.34;5134316;27;20272;-63
2023/03/04 00:15:03;;;;;;;12.88;2.20;;;;;;;4.71;100.00;102482.97;5127996;27;20040;-63
2023/03/04 00:17:33;;;;;;;10.40;1.98;;;;;;;4.66;100.00;102483.06;5113914;28;20120;-63
2023/03/04 00:20:01;;;;;;;9.38;1.83;;;;;;;4.70;100.00;102484.72;5113835;28;20049;-62
2023/03/04 00:22:32;;;;;;;13.52;2.08;;;;;;;4.72;100.00;102482.09;5113982;28;20192;-61
2023/03/04 00:25:00;;;;;;;12.07;2.30;;;;;;;4.72;100.00;102479.50;5110715;28;20051;-51
2023/03/04 00:27:28;;;;;;;9.30;2.03;;;;;;;4.70;100.00;102481.25;5130335;27;20389;-50
2023/03/04 00:29:57;;;;;;;13.85;2.22;;;;;;;4.69;100.00;102482.13;5130651;27;20047;-62
2023/03/04 00:32:25;;;;;;;11.90;1.80;;;;;;;4.67;100.00;102481.28;5122107;27;20372;-51
2023/03/04 00:34:55;;;;;;;14.35;2.80;;;;;;;4.70;100.00;102474.31;5109080;28;20482;-52
2023/03/04 00:37:23;;;;;;;16.65;2.22;;;;;;;4.74;100.00;102472.50;5110146;27;20082;-53
2023/03/04 00:39:51;;;;;;;13.88;2.85;;;;;;;4.72;100.00;102475.13;5130382;27;20085;-49
2023/03/04 00:42:19;;;;;;;12.23;2.05;;;;;;;4.68;100.00;102477.81;5132691;27;20073;-48
2023/03/04 00:44:48;;;;;;;10.95;1.80;;;;;;;4.69;100.00;102471.69;5132914;27;20070;-48
2023/03/04 00:47:16;;;;;;;16.90;2.60;;;;;;;4.69;100.00;102469.09;5128834;27;20039;-52
2023/03/04 00:49:44;;;;;;;14.82;1.98;;;;;;;4.72;100.00;102471.66;5130326;27;20047;-53
2023/03/04 00:52:16;;;;;;;11.38;2.05;;;;;;;4.72;100.00;102467.31;5131809;27;20058;-53
2023/03/04 00:54:44;;;;;;;13.68;2.00;;;;;;;4.73;100.00;102468.16;5123814;27;20429;-49
2023/03/04 00:57:12;;;;;;;13.23;2.10;;;;;;;4.74;100.00;102470.75;5124332;27;20513;-51
2023/03/04 00:59:42;;;;;;;13.85;2.50;;;;;;;4.72;100.00;102467.31;5129185;27;20047;-50
2023/03/04 01:02:11;;;;;;;10.10;2.30;;;;;;;4.76;100.00;102472.47;5121176;27;20047;-47
2023/03/04 01:04:40;;;;;;;11.18;2.30;;;;;;;4.76;100.00;102469.84;5113965;28;20078;-47
2023/03/04 01:07:08;;;;;;;15.75;2.50;;;;;;;4.74;100.00;102469.88;5117715;27;20047;-48
2023/03/04 01:09:38;;;;;;;12.88;2.10;;;;;;;4.76;100.00;102469.84;5132453;27;20055;-48
2023/03/04 01:12:06;;;;;;;13.45;2.00;;;;;;;4.77;100.00;102472.44;5131236;27;20059;-50
2023/03/04 01:14:35;;;;;;;20.25;2.22;;;;;;;4.72;100.00;102469.06;5133058;27;20096;-50
2023/03/04 01:17:03;;;;;;;11.68;1.80;;;;;;;4.76;100.00;102478.56;5131435;27;20449;-48
2023/03/04 01:19:31;;;;;;;15.73;1.90;;;;;;;4.70;100.00;102469.09;5127007;27;20047;-49
2023/03/04 01:21:59;;;;;;;11.68;2.03;;;;;;;4.73;100.00;102468.16;5128793;28;20070;-49
2023/03/04 01:24:30;;;;;;;14.98;2.35;;;;;;;4.78;100.00;102466.34;5122525;28;20070;-51
2023/03/04 01:27:00;;;;;;;11.35;1.67;;;;;;;4.78;100.00;102466.34;5116443;27;20035;-48
2023/03/04 01:29:28;;;;;;;12.85;1.92;;;;;;;4.76;100.00;102462.91;5129870;27;20043;-47
2023/03/04 01:31:57;;;;;;;19.50;2.67;;;;;;;4.73;100.00;102458.59;5135640;27;20563;-50
2023/03/04 01:34:25;;;;;;;12.52;2.00;;;;;;;4.71;100.00;102456.91;5122923;27;20100;-50
2023/03/04 01:36:53;;;;;;;14.73;1.98;;;;;;;4.68;100.00;102457.81;5124565;27;20104;-48
2023/03/04 01:39:24;;;;;;;11.45;1.85;;;;;;;4.71;100.00;102456.91;5132019;27;20047;-52
2023/03/04 01:41:52;;;;;;;13.40;1.98;;;;;;;4.70;100.00;102450.84;5134697;27;20039;-48
2023/03/04 01:44:22;;;;;;;11.55;1.77;;;;;;;4.68;100.00;102451.75;5131968;27;20074;-50
2023/03/04 01:46:53;;;;;;;17.70;2.75;;;;;;;4.69;100.00;102454.31;5123530;27;20088;-49
2023/03/04 01:49:22;;;;;;;12.63;2.10;;;;;;;4.74;100.00;102444.69;5128681;27;20067;-49
2023/03/04 01:51:52;;;;;;;12.30;2.25;;;;;;;4.65;100.00;102444.84;5129330;27;20490;-52
2023/03/04 01:54:21;;;;;;;8.35;1.58;;;;;;;4.62;100.00;102439.66;5131949;27;20043;-52
2023/03/04 01:56:51;;;;;;;16.98;2.17;;;;;;;4.67;100.00;102443.03;5132376;27;20043;-49
2023/03/04 01:59:23;;;;;;;10.73;1.83;;;;;;;4.71;100.00;102444.72;5134164;27;20043;-53
2023/03/04 02:01:53;;;;;;;11.07;2.30;;;;;;;4.63;100.00;102440.53;5127584;27;20039;-48
2023/03/04 02:04:24;;;;;;;11.77;1.60;;;;;;;4.56;100.00;102435.38;5129659;27;20476;-51
2023/03/04 02:06:53;;;;;;;14.43;2.40;;;;;;;4.57;100.00;102431.06;5113082;27;20047;-50
2023/03/04 02:09:22;;;;;;;9.85;1.90;;;;;;;4.55;100.00;102435.41;5133801;27;20126;-49
2023/03/04 02:11:51;;;;;;;7.57;1.95;;;;;;;4.56;100.00;102427.56;5135481;27;20043;-50
2023/03/04 02:14:19;;;;;;;13.15;2.15;;;;;;;4.62;100.00;102418.81;5125925;27;20085;-49
2023/03/04 02:16:49;;;;;;;9.82;2.00;;;;;;;4.60;100.00;102423.19;5112245;28;20059;-48
2023/03/04 02:19:26;;;;;;;9.65;1.40;;;;;;;4.59;100.00;102421.44;5112898;28;20058;-52
2023/03/04 02:21:54;;;;;;;12.38;1.70;;;;;;;4.61;100.00;102417.09;5112079;28;20088;-47
2023/03/04 02:24:29;;;;;;;13.70;1.65;;;;;;;4.57;100.00;102421.47;5112891;27;20078;-49
2023/03/04 02:26:59;;;;;;;12.85;1.75;;;;;;;4.59;100.00;102420.59;5131747;27;20055;-51
2023/03/04 02:29:28;;;;;;;9.82;1.75;;;;;;;4.64;100.00;102413.59;5134958;27;20053;-50
2023/03/04 02:31:57;;;;;;;11.90;2.03;;;;;;;4.62;100.00;102418.81;5128778;27;20427;-48
2023/03/04 02:34:28;;;;;;;11.82;1.67;;;;;;;4.56;100.00;102409.31;5132344;27;20046;-51
2023/03/04 02:36:57;;;;;;;10.63;1.80;;;;;;;4.61;100.00;102417.09;5124342;27;20047;-49
2023/03/04 02:39:30;;;;;;;13.10;2.15;;;;;;;4.57;100.00;102416.25;5123621;27;20101;-47
2023/03/04 02:42:01;;;;;;;13.23;1.55;;;;;;;4.54;100.00;102413.72;5121057;27;20047;-49
2023/03/04 02:44:33;;;;;;;8.25;1.75;;;;;;;4.62;100.00;102412.72;5123486;27;20050;-47
2023/03/04 02:47:02;;;;;;;14.93;1.98;;;;;;;4.56;100.00;102403.25;5125745;27;20068;-50
2023/03/04 02:49:31;;;;;;;13.20;2.15;;;;;;;4.52;100.00;102397.22;5119206;27;20054;-52
2023/03/04 02:52:03;;;;;;;12.25;1.83;;;;;;;4.62;100.00;102404.91;5121315;27;20039;-48
2023/03/04 02:54:31;;;;;;;8.38;1.80;;;;;;;4.51;100.00;102403.34;5128383;27;20043;-49
2023/03/04 02:57:03;;;;;;;8.68;1.77;;;;;;;4.54;100.00;102395.47;5124133;27;20084;-48
2023/03/04 02:59:31;;;;;;;11.57;1.70;;;;;;;4.52;100.00;102392.00;5122157;27;20043;-49
2023/03/04 03:01:59;;;;;;;11.27;1.60;;;;;;;4.56;100.00;102391.09;5124014;27;20055;-50
2023/03/04 03:04:28;;;;;;;9.93;1.63;;;;;;;4.62;100.00;102389.28;5120363;27;20085;-51
2023/03/04 03:06:56;;;;;;;7.20;1.60;;;;;;;4.56;100.00;102391.09;5128769;27;20126;-48
2023/03/04 03:09:24;;;;;;;15.38;1.83;;;;;;;4.55;100.00;102384.16;5127168;27;20100;-50
2023/03/04 03:11:52;;;;;;;10.30;1.70;;;;;;;4.48;100.00;102379.91;5122866;27;20050;-48
2023/03/04 03:14:22;;;;;;;9.35;1.50;;;;;;;4.53;100.00;102377.25;5123875;27;20052;-49
2023/03/04 03:16:50;;;;;;;14.63;2.13;;;;;;;4.54;100.00;102382.44;5127445;27;20109;-51
2023/03/04 03:19:18;;;;;;;13.18;1.63;;;;;;;4.61;100.00;102382.34;5123809;27;20447;-52
2023/03/04 03:21:46;;;;;;;12.00;2.05;;;;;;;4.62;100.00;102373.63;5126098;27;20066;-49
2023/03/04 03:24:15;;;;;;;8.15;1.52;;;;;;;4.53;100.00;102369.44;5130130;27;20044;-53
2023/03/04 03:26:43;;;;;;;13.32;1.52;;;;;;;4.54;100.00;102369.41;5129463;27;20046;-54
2023/03/04 03:29:11;;;;;;;11.15;1.52;;;;;;;4.55;100.00;102371.16;5127847;27;20122;-52
2023/03/04 03:31:41;;;;;;;12.70;2.00;;;;;;;4.55;100.00;102360.72;5128041;27;20088;-48
2023/03/04 03:34:09;;;;;;;10.05;1.35;;;;;;;4.56;100.00;102364.19;5126456;27;20506;-51
2023/03/04 03:36:37;;;;;;;8.20;1.75;;;;;;;4.60;100.00;102354.56;5126159;27;20157;-52
2023/03/04 03:39:05;;;;;;;13.25;1.65;;;;;;;4.62;100.00;102351.06;5125176;27;20422;-51
2023/03/04 03:41:33;;;;;;;7.85;1.67;;;;;;;4.56;100.00;102362.41;5121552;27;20482;-50
2023/03/04 03:44:01;;;;;;;13.88;1.90;;;;;;;4.48;100.00;102351.25;5117136;27;20028;-51
2023/03/04 03:46:29;;;;;;;12.23;1.30;;;;;;;4.54;100.00;102359.00;5122812;27;20053;-49
2023/03/04 03:48:59;;;;;;;7.40;1.40;;;;;;;4.54;100.00;102361.59;5119401;27;20075;-49
2023/03/04 03:51:27;;;;;;;13.68;1.90;;;;;;;4.55;100.00;102365.94;5123232;27;20114;-50
2023/03/04 03:53:55;;;;;;;10.63;1.55;;;;;;;4.57;100.00;102371.13;5123407;27;20042;-51
2023/03/04 03:56:23;;;;;;;7.20;1.30;;;;;;;4.53;100.00;102359.88;5124459;27;20046;-52
2023/03/04 03:58:54;;;;;;;11.40;1.60;;;;;;;4.53;100.00;102364.22;5131947;27;20035;-47
2023/03/04 04:01:22;;;;;;;11.80;1.88;;;;;;;4.50;100.00;102361.66;5125316;27;20501;-51
2023/03/04 04:03:50;;;;;;;14.57;2.35;;;;;;;4.49;100.00;102370.38;5123720;27;20066;-51
2023/03/04 04:06:19;;;;;;;10.77;1.83;;;;;;;4.49;100.00;102363.41;5115897;27;20445;-52
2023/03/04 04:08:47;;;;;;;14.07;1.92;;;;;;;4.48;100.00;102366.88;5121481;27;20051;-52
2023/03/04 04:11:19;;;;;;;14.43;1.80;;;;;;;4.51;100.00;102368.59;5122246;27;20070;-48
2023/03/04 04:13:47;;;;;;;10.88;1.73;;;;;;;4.59;100.00;102364.13;5124807;27;20051;-49
2023/03/04 04:16:15;;;;;;;12.60;1.98;;;;;;;4.58;100.00;102365.00;5123574;27;20050;-52
2023/03/04 04:18:43;;;;;;;13.85;1.85;;;;;;;4.54;100.00;102368.53;5119784;27;20039;-50
2023/03/04 04:21:11;;;;;;;13.23;1.77;;;;;;;4.55;100.00;102370.25;5123904;27;20035;-49
2023/03/04 04:23:40;;;;;;;12.32;1.75;;;;;;;4.46;100.00;102368.69;5122251;27;20047;-49
2023/03/04 04:26:08;;;;;;;11.18;1.80;;;;;;;4.47;100.00;102362.59;5118006;27;20051;-51
2023/03/04 04:28:37;;;;;;;8.68;1.48;;;;;;;4.49;100.00;102367.78;5118335;27;20474;-52
2023/03/04 04:31:07;;;;;;;9.82;1.40;;;;;;;4.50;100.00;102357.31;5119554;27;21757;-50
2023/03/04 04:33:36;;;;;;;9.63;1.55;;;;;;;4.53;100.00;102359.03;5122383;27;20100;-50
2023/03/04 04:36:05;;;;;;;10.45;1.98;;;;;;;4.49;100.00;102365.16;5129034;27;20039;-50
2023/03/04 04:38:33;;;;;;;9.68;1.63;;;;;;;4.46;100.00;102360.84;5121674;27;20040;-47
2023/03/04 04:41:03;;;;;;;11.23;2.50;;;;;;;4.45;100.00;102359.13;5126851;27;20069;-52
2023/03/04 04:43:31;;;;;;;10.48;1.27;;;;;;;4.40;100.00;102374.84;5126700;27;20537;-51
2023/03/04 04:46:00;;;;;;;8.18;1.20;;;;;;;4.45;100.00;102359.13;5126802;27;20448;-49
2023/03/04 04:48:28;;;;;;;13.00;1.83;;;;;;;4.49;100.00;102362.56;5123397;27;20040;-53
2023/03/04 04:50:56;;;;;;;9.45;2.92;;;;;;;4.56;100.00;102362.41;5121872;27;20051;-52
2023/03/04 04:53:24;;;;;;;9.23;1.33;;;;;;;4.52;100.00;102372.94;5123270;27;20043;-49
2023/03/04 04:55:52;;;;;;;8.25;1.48;;;;;;;4.45;100.00;102374.75;5119652;27;20078;-51
2023/03/04 04:58:22;;;;;;;8.73;1.27;;;;;;;4.44;100.00;102370.44;5124928;27;20048;-49
2023/03/04 05:00:50;;;;;;;9.15;1.80;;;;;;;4.45;100.00;102366.09;5129536;27;20068;-50
2023/03/04 05:03:18;;;;;;;11.80;2.13;;;;;;;4.44;100.00;102369.56;5126508;27;20043;-50
2023/03/04 05:05:50;;;;;;;7.80;1.08;;;;;;;4.47;100.00;102375.63;5110482;27;20406;-49
2023/03/04 05:08:20;;;;;;;6.35;1.10;;;;;;;4.39;100.00;102380.03;5118641;27;20526;-51
2023/03/04 05:10:48;;;;;;;8.55;1.45;;;;;;;4.39;100.00;102370.50;5120158;27;20405;-51
2023/03/04 05:13:18;;;;;;;8.02;1.30;;;;;;;4.36;100.00;102375.78;5125105;27;20100;-50
2023/03/04 05:15:48;;;;;;;14.57;1.65;;;;;;;4.33;100.00;102374.94;5117436;27;20131;-51
2023/03/04 05:18:16;;;;;;;15.00;1.73;;;;;;;4.32;100.00;102379.31;5121371;27;20090;-47
2023/03/04 05:20:44;;;;;;;13.80;1.88;;;;;;;4.29;100.00;102379.31;5124408;28;20474;-51
2023/03/04 05:23:12;;;;;;;12.02;1.85;;;;;;;4.31;100.00;102384.50;5120904;27;20122;-48
2023/03/04 05:25:40;;;;;;;13.00;1.60;;;;;;;4.27;100.00;102377.63;5126502;28;21661;-48
2023/03/04 05:28:11;;;;;;;9.60;1.35;;;;;;;4.28;100.00;102375.03;5119874;28;20066;-50
2023/03/04 05:30:39;;;;;;;14.10;1.45;;;;;;;4.27;100.00;102375.00;5125907;27;20110;-51
2023/03/04 05:33:09;;;;;;;9.48;1.60;;;;;;;4.27;100.00;102365.47;5118935;28;20035;-50
2023/03/04 05:35:40;;;;;;;9.15;1.25;;;;;;;4.28;100.00;102367.22;5121096;28;20035;-48
2023/03/04 05:38:10;;;;;;;13.55;1.58;;;;;;;4.31;100.00;102372.38;5118199;27;20536;-52
2023/03/04 05:40:39;;;;;;;8.82;1.15;;;;;;;4.27;100.00;102369.81;5121250;28;20052;-48
2023/03/04 05:43:08;;;;;;;7.82;1.13;;;;;;;4.23;100.00;102367.25;5122081;28;20039;-52
2023/03/04 05:45:36;;;;;;;10.75;1.80;;;;;;;4.26;100.00;102365.50;5123227;28;20498;-49
2023/03/04 05:48:05;;;;;;;10.00;1.45;;;;;;;4.22;100.00;102370.72;5119906;28;20041;-49
2023/03/04 05:50:35;;;;;;;13.00;2.28;;;;;;;4.24;100.00;102370.75;5119452;28;20043;-50
2023/03/04 05:53:06;;;;;;;7.60;1.52;;;;;;;4.18;100.00;102378.63;5122786;28;20038;-50
2023/03/04 05:55:34;;;;;;;10.90;1.52;;;;;;;4.17;100.00;102387.31;5123363;28;20039;-51
2023/03/04 05:58:02;;;;;;;9.27;1.20;;;;;;;4.19;100.00;102376.00;5125683;28;20062;-52
2023/03/04 06:00:30;;;;;;;7.50;1.13;;;;;;;4.17;100.00;102385.59;5125451;28;20039;-49
2023/03/04 06:02:58;;;;;;;8.60;1.48;;;;;;;4.18;100.00;102384.69;5120210;28;20043;-51
2023/03/04 06:05:26;;;;;;;6.75;1.00;;;;;;;4.22;100.00;102388.97;5127398;27;20049;-51
2023/03/04 06:07:56;;;;;;;8.23;1.30;;;;;;;4.18;100.00;102382.06;5125700;28;20115;-49
2023/03/04 06:10:24;;;;;;;10.05;1.35;;;;;;;4.16;100.00;102383.84;5127164;28;20118;-48
2023/03/04 06:12:52;;;;;;;8.93;1.92;;;;;;;4.12;100.00;102371.75;5121687;27;20047;-51
2023/03/04 06:15:20;;;;;;;11.43;1.45;;;;;;;4.16;100.00;102373.44;5131090;27;20062;-49
2023/03/04 06:17:48;;;;;;;11.75;2.10;;;;;;;4.17;100.00;102380.38;5123820;27;20978;-49
2023/03/04 06:20:16;;;;;;;8.38;1.33;;;;;;;4.16;100.00;102377.78;5128163;27;20035;-51
2023/03/04 06:22:44;;;;;;;10.77;1.88;;;;;;;4.17;100.00;102379.50;5121391;27;20111;-52
2023/03/04 06:25:14;;;;;;;10.43;1.73;;;;;;;4.20;100.00;102382.94;5123228;27;20108;-47
2023/03/04 06:27:42;;;;;;;5.68;1.20;;;;;;;4.19;100.00;102382.97;5130980;27;20524;-48
2023/03/04 06:30:11;;;;;;;8.75;1.80;;;;;;;4.20;100.00;102388.16;5121145;27;20522;-48
2023/03/04 06:32:43;;;;;;;11.32;1.48;;;;;;;4.17;100.00;102390.78;5123340;27;20122;-50
2023/03/04 06:35:15;;;;;;;10.60;1.48;;;;;;;4.12;100.00;102386.50;5127781;27;20435;-50
2023/03/04 06:37:43;;;;;;;10.63;1.50;;;;;;;4.25;100.00;102380.25;5119238;27;20047;-51
2023/03/04 06:40:14;;;;;;;5.30;1.20;;;;;;;4.20;100.00;102385.53;5128321;27;20051;-51
2023/03/04 06:42:42;;;;;;;8.45;1.40;;;;;;;4.17;100.00;102388.19;5124161;27;20486;-51
2023/03/04 06:45:11;;;;;;;6.32;1.40;;;;;;;4.17;100.00;102385.59;5127313;27;20051;-49
2023/03/04 06:47:40;;;;;;;9.38;1.75;;;;;;;4.18;100.00;102384.69;5127125;27;20060;-48
2023/03/04 06:50:10;;;;;;;6.78;1.38;;;;;;;4.17;100.00;102389.91;5125205;27;20046;-50
2023/03/04 06:52:39;;;;;;;9.82;1.38;;;;;;;4.19;100.00;102391.63;5123338;27;20048;-48
2023/03/04 06:55:08;;;;;;;10.00;1.60;;;;;;;4.20;100.00;102388.16;5124652;27;20359;-51
2023/03/04 06:57:38;;;;;;;9.35;1.38;;;;;;;4.24;100.00;102388.97;5120804;27;20039;-60
2023/03/04 07:00:08;;;;;;;8.18;1.20;;;;;;;4.21;100.00;102392.47;5123856;27;20036;-61
2023/03/04 07:02:36;;;;;;;8.82;1.42;;;;;;;4.27;100.00;102390.66;5124003;27;20047;-61
2023/03/04 07:05:04;;;;;;;7.10;1.30;;;;;;;4.30;100.00;102388.88;5125496;27;20556;-61
2023/03/04 07:07:33;;;;;;;9.48;3.33;;;;;;;4.33;100.00;102394.03;5125373;27;20043;-61
2023/03/04 07:10:04;;;;;;;13.55;2.05;;;;;;;4.34;100.00;102389.69;5124469;27;20482;-61
2023/03/04 07:12:32;;;;;;;13.65;1.77;;;;;;;4.34;100.00;102393.16;5123565;27;20123;-60
2023/03/04 07:15:02;;;;;;;7.70;1.65;;;;;;;4.39;100.00;102395.69;5122294;27;20114;-61
2023/03/04 07:17:30;;;;;;;7.88;1.70;;;;;;;4.37;100.00;102397.47;5122445;27;20031;-61
2023/03/04 07:19:58;;;;;;;9.48;1.63;;;;;;;4.38;100.00;102401.78;5116431;27;20059;-61
2023/03/04 07:22:26;;;;;;;6.90;1.35;;;;;;;4.38;100.00;102405.25;5130117;27;20103;-61
2023/03/04 07:24:54;;;;;;;9.30;2.42;;;;;;;4.37;100.00;102400.06;5118514;27;20039;-61
2023/03/04 07:27:23;;;;;;;13.95;1.90;;;;;;;4.44;100.00;102403.44;5122717;27;20036;-61
2023/03/04 07:29:51;;;;;;;9.90;1.65;;;;;;;4.47;100.00;102401.66;5119801;27;20043;-61
2023/03/04 07:32:20;;;;;;;9.77;1.58;;;;;;;4.44;100.00;102404.28;5119418;27;20122;-61
2023/03/04 07:34:49;;;;;;;5.57;1.20;;;;;;;4.43;100.00;102407.81;5121850;27;20084;-61
2023/03/04 07:37:17;;;;;;;7.65;2.25;;;;;;;4.47;100.00;102409.50;5123446;27;20043;-61
2023/03/04 07:39:45;;;;;;;9.85;1.60;;;;;;;4.55;100.00;102409.34;5124281;27;20070;-60
2023/03/04 07:42:13;;;;;;;9.82;1.60;;;;;;;4.60;100.00;102407.53;5130161;27;20783;-60
2023/03/04 07:44:41;;;;;;;8.95;2.10;;;;;;;4.64;100.00;102410.97;5129297;27;20517;-61
2023/03/04 07:47:09;;;;;;;9.82;1.70;;;;;;;4.66;100.00;102414.41;5134942;27;20095;-61
2023/03/04 07:49:39;;;;;;;10.75;1.92;;;;;;;4.71;100.00;102404.78;5132852;27;20062;-60
2023/03/04 07:52:07;;;;;;;7.57;1.40;;;;;;;4.77;100.00;102407.28;5117040;27;20035;-61
2023/03/04 07:54:36;;;;;;;10.05;1.90;;;;;;;4.84;100.00;102403.69;5122951;27;20463;-62
2023/03/04 07:57:04;;;;;;;8.52;1.88;;;;;;;4.88;100.00;102405.38;5132055;27;20047;-62
2023/03/04 07:59:32;;;;;;;12.30;1.92;;;;;;;4.89;100.00;102406.22;5123301;27;20044;-61
2023/03/04 08:02:00;;;;;;;16.48;2.80;;;;;;;4.93;100.00;102407.88;5123773;27;20041;-61
2023/03/04 08:04:28;;;;;;;12.00;1.83;;;;;;;5.04;100.00;102411.16;5115981;27;20049;-61
2023/03/04 08:06:58;;;;;;;11.07;1.63;;;;;;;5.09;100.00;102418.94;5128796;27;20047;-61
2023/03/04 08:09:26;;;;;;;10.48;1.58;;;;;;;5.20;100.00;102414.38;5127443;27;20402;-61
2023/03/04 08:11:54;;;;;;;11.27;1.83;;;;;;;5.20;100.00;102416.16;5120387;27;20490;-61
2023/03/04 08:14:22;;;;;;;5.97;1.38;;;;;;;5.23;100.00;102416.94;5117312;27;20137;-61
2023/03/04 08:16:53;;;;;;;8.65;1.60;;;;;;;5.29;100.00;102417.72;5131531;27;20043;-61
2023/03/04 08:19:21;;;;;;;4.90;1.40;;;;;;;5.30;100.00;102419.44;5131149;27;20054;-62
2023/03/04 08:21:52;;;;;;;10.68;1.85;;;;;;;5.35;100.00;102409.78;5130675;27;20163;-61
2023/03/04 08:24:25;;;;;;;8.73;1.65;;;;;;;5.41;100.00;102409.66;5134261;27;20131;-61
2023/03/04 08:26:53;;;;;;;9.00;1.52;;;;;;;5.41;100.00;102417.50;5133039;27;20039;-61
2023/03/04 08:29:23;;;;;;;9.30;1.92;;;;;;;5.43;100.00;102415.72;5130440;27;20059;-61
2023/03/04 08:31:54;;;;;;;12.75;2.08;;;;;;;5.42;100.00;102414.00;5133239;27;20569;-61
2023/03/04 08:34:25;;;;;;;10.48;1.75;;;;;;;5.48;100.00;102419.13;5134228;27;20043;-61
2023/03/04 08:36:53;;;;;;;9.10;2.03;;;;;;;5.50;100.00;102413.88;5132471;27;20047;-62
2023/03/04 08:39:22;;;;;;;6.20;1.55;;;;;;;5.56;100.00;102419.84;5130996;27;20043;-61
2023/03/04 08:41:51;;;;;;;10.07;1.80;;;;;;;5.58;100.00;102415.44;5130819;27;20402;-61
2023/03/04 08:44:19;;;;;;;11.23;2.00;;;;;;;5.69;100.00;102414.38;5132579;27;20074;-61
2023/03/04 08:46:47;;;;;;;7.55;1.58;;;;;;;5.75;100.00;102415.13;5112417;28;20509;-61
2023/03/04 08:49:15;;;;;;;8.07;1.70;;;;;;;5.85;100.00;102417.53;5113319;28;20547;-60
2023/03/04 08:51:44;;;;;;;9.98;1.73;;;;;;;5.95;100.00;102424.28;5111230;28;20175;-60
2023/03/04 08:54:12;;;;;;;8.27;1.40;;;;;;;6.00;100.00;102416.38;5110588;28;20066;-61
2023/03/04 08:56:41;;;;;;;6.88;1.67;;;;;;;6.10;100.00;102417.94;5110571;28;20040;-62
2023/03/04 08:59:10;;;;;;;8.02;1.60;;;;;;;6.00;100.00;102419.88;5129133;27;20043;-62
2023/03/04 09:01:38;;;;;;;6.50;1.55;;;;;;;6.02;100.00;102419.84;5125455;27;20088;-62
2023/03/04 09:04:06;;;;;;;10.50;1.77;;;;;;;6.11;100.00;102426.59;5117796;27;20043;-62
2023/03/04 09:06:35;;;;;;;7.32;1.65;;;;;;;6.12;100.00;102416.13;5121160;27;20500;-61
2023/03/04 09:09:03;;;;;;;10.45;1.83;;;;;;;6.11;100.00;102417.03;5122362;27;20119;-61
2023/03/04 09:11:32;;;;;;;7.70;1.60;;;;;;;6.11;100.00;102424.88;5124607;27;20092;-61
2023/03/04 09:14:00;;;;;;;7.13;1.80;;;;;;;6.07;100.00;102420.59;5123491;27;20453;-61
2023/03/04 09:16:29;;;;;;;7.50;1.77;;;;;;;6.10;100.00;102420.53;5120578;27;20050;-61
2023/03/04 09:18:57;;;;;;;6.82;1.60;;;;;;;6.05;100.00;102422.38;5124066;27;20095;-62
2023/03/04 09:21:25;;;;;;;7.40;1.40;;;;;;;6.08;100.00;102419.69;5115711;27;20043;-61
2023/03/04 09:23:54;;;;;;;9.30;2.13;;;;;;;6.09;100.00;102424.03;5118435;28;20317;-61
2023/03/04 09:26:24;;;;;;;5.00;1.25;;;;;;;5.87;100.00;102419.22;5120793;28;20396;-61
2023/03/04 09:28:55;;;;;;;8.07;1.50;;;;;;;5.85;100.00;102423.63;5120654;28;20065;-61
2023/03/04 09:31:24;;;;;;;8.73;1.75;;;;;;;5.86;100.00;102421.88;5120443;28;20533;-60
2023/03/04 09:33:54;;;;;;;4.95;1.20;;;;;;;5.91;100.00;102415.66;5117075;28;20119;-62
2023/03/04 09:36:23;;;;;;;8.13;1.80;;;;;;;6.02;100.00;102412.84;5119347;28;20055;-61
2023/03/04 09:38:51;;;;;;;5.13;1.48;;;;;;;6.25;100.00;102412.34;5115344;28;20482;-61
2023/03/04 09:41:23;;;;;;;5.82;1.70;;;;;;;6.22;100.00;102414.19;5123111;28;20035;-61
2023/03/04 09:43:54;;;;;;;8.00;1.52;;;;;;;6.16;100.00;102409.09;5115340;28;20126;-61
2023/03/04 09:46:29;;;;;;;4.78;1.40;;;;;;;6.17;100.00;102411.66;5123542;27;20196;-61
2023/03/04 09:48:59;;;;;;;6.75;1.83;;;;;;;6.18;100.00;102404.72;5121211;27;20103;-59
2023/03/04 09:51:41;;;;;;;6.60;1.65;;;;;;;6.19;100.00;102401.19;5118598;27;20634;-62
2023/03/04 09:54:14;;;;;;;8.32;1.80;;;;;;;6.32;100.00;102397.41;5122728;27;20039;-61
2023/03/04 09:56:43;;;;;;;8.13;2.15;;;;;;;6.36;100.00;102400.81;5129180;27;20039;-61
2023/03/04 09:59:17;;;;;;;11.27;2.08;;;;;;;6.52;100.00;102403.94;5126122;27;20051;-62
2023/03/04 10:01:49;;;;;;;8.65;2.05;;;;;;;6.70;100.00;102394.81;5126521;27;20430;-61
2023/03/04 10:04:30;;;;;;;5.20;1.85;;;;;;;6.84;100.00;102395.31;5123004;27;20047;-61
2023/03/04 10:06:58;;;;;;;5.20;1.83;;;;;;;6.86;100.00;102396.16;5125094;27;20051;-61
2023/03/04 10:09:32;;;;;;;6.03;1.60;;;;;;;7.02;100.00;102393.13;5119892;27;20122;-61
2023/03/04 10:12:04;;;;;;;3.70;1.48;;;;;;;7.05;100.00;102390.47;5122559;27;20050;-62
2023/03/04 10:14:37;;;;;;;4.28;1.20;;;;;;;7.23;100.00;102384.72;5116380;27;20058;-62
2023/03/04 10:17:14;;;;;;;4.07;1.20;;;;;;;7.35;100.00;102388.78;5122253;27;20104;-62
2023/03/04 10:19:53;;;;;;;2.63;1.10;;;;;;;7.34;100.00;102381.84;5124001;27;20031;-62
2023/03/04 10:22:28;;;;;;;3.30;1.20;;;;;;;7.45;100.00;102379.78;5128847;27;20050;-62
2023/03/04 10:24:58;;;;;;;4.43;1.30;;;;;;;7.44;100.00;102385.94;5127101;27;20080;-62
2023/03/04 10:27:28;;;;;;;3.70;1.10;;;;;;;7.57;100.00;102381.19;5125966;27;20039;-62
2023/03/04 10:29:59;;;;;;;2.25;1.00;;;;;;;7.69;100.00;102382.63;5119567;27;20063;-62
2023/03/04 10:32:28;;;;;;;2.97;0.95;;;;;;;7.51;100.00;102373.53;5110816;28;20122;-62
2023/03/04 10:34:59;;;;;;;3.05;1.05;;;;;;;7.55;100.00;102375.16;5111491;28;20052;-62
2023/03/04 10:37:43;;;;;;;4.25;1.25;;;;;;;7.61;100.00;102377.59;5115313;28;20039;-62
2023/03/04 10:40:19;;;;;;;3.53;1.23;;;;;;;7.76;100.00;102378.06;5116076;28;20509;-62
2023/03/04 10:42:49;;;;;;;4.95;1.27;;;;;;;7.81;100.00;102376.16;5115692;28;20107;-62
2023/03/04 10:45:22;;;;;;;2.53;1.20;;;;;;;7.72;100.00;102377.28;5115566;28;20036;-62
2023/03/04 10:47:54;;;;;;;4.43;1.40;;;;;;;7.66;100.00;102374.81;5115597;28;20046;-62
2023/03/04 10:50:26;;;;;;;3.58;1.20;;;;;;;7.55;100.00;102375.16;5116060;28;20051;-62
2023/03/04 10:52:55;;;;;;;6.25;1.50;;;;;;;7.60;100.00;102378.47;5114600;28;20101;-62
2023/03/04 10:55:27;;;;;;;4.43;1.40;;;;;;;7.49;100.00;102375.31;5112481;28;20063;-62
2023/03/04 10:57:57;;;;;;;3.85;1.40;;;;;;;7.40;100.00;102365.09;5114516;28;20158;-62
2023/03/04 11:00:30;;;;;;;2.97;1.10;;;;;;;7.57;100.00;102364.63;5112554;28;20039;-62
2023/03/04 11:03:23;;;;;;;5.38;1.70;;;;;;;7.49;100.00;102356.16;5112968;28;20048;-62
2023/03/04 11:06:16;;;;;;;3.33;1.20;;;;;;;7.59;100.00;102362.81;5114129;28;20058;-61
2023/03/04 11:08:46;;;;;;;3.17;1.30;;;;;;;7.42;100.00;102358.91;5115393;28;20062;-62
2023/03/04 11:11:23;;;;;;;4.30;1.38;;;;;;;7.43;100.00;102352.78;5115407;28;20482;-62
2023/03/04 11:13:53;;;;;;;5.15;1.63;;;;;;;7.44;100.00;102346.66;5113596;28;20055;-61
2023/03/04 11:16:26;;;;;;;3.25;1.30;;;;;;;7.43;100.00;102354.53;5112244;28;20081;-61
2023/03/04 11:18:59;;;;;;;5.75;1.35;;;;;;;7.54;100.00;102347.25;5112590;28;20106;-62
2023/03/04 11:21:31;;;;;;;3.35;1.20;;;;;;;7.58;100.00;102350.63;5114083;28;20059;-61
2023/03/04 11:24:01;;;;;;;;;;;;;;;7.61;100.00;102347.94;5112665;28;20047;-62
2023/03/04 11:26:39;;;;;;;3.53;0.97;;;;;;;7.65;100.00;102343.44;5113610;28;19926;-61
2023/03/04 11:29:15;;;;;;;3.45;1.25;;;;;;;7.52;100.00;102346.44;5114934;28;20901;-61
2023/03/04 11:31:49;;;;;;;3.45;1.00;;;;;;;7.62;100.00;102344.41;5114985;28;20102;-61